createdAt,value
2023-02-09T00:02:15.002Z,6.10
2023-02-09T00:04:41.937Z,6.60
2023-02-09T00:07:08.673Z,6.17
2023-02-09T00:09:35.304Z,5.90
2023-02-09T00:12:20.807Z,6.07
2023-02-09T00:14:47.472Z,6.97
2023-02-09T00:17:14.139Z,6.33
2023-02-09T00:19:40.815Z,6.10
2023-02-09T00:22:07.496Z,6.70
2023-02-09T00:24:34.242Z,6.63
2023-02-09T00:27:00.909Z,7.07
2023-02-09T00:29:27.675Z,7.33
2023-02-09T00:31:54.427Z,6.87
2023-02-09T00:34:21.205Z,6.47
2023-02-09T00:36:48.118Z,6.53
2023-02-09T00:39:14.854Z,6.60
2023-02-09T00:42:00.294Z,6.67
2023-02-09T00:44:27.046Z,6.73
2023-02-09T00:46:53.832Z,7.53
2023-02-09T00:49:20.958Z,6.77
2023-02-09T00:51:47.751Z,6.70
2023-02-09T00:54:16.060Z,6.00
2023-02-09T00:56:43.862Z,6.43
2023-02-09T00:59:11.297Z,6.87
2023-02-09T01:01:38.133Z,6.70
2023-02-09T01:04:05.295Z,6.40
2023-02-09T01:06:32.354Z,6.33
2023-02-09T01:08:59.185Z,6.20
2023-02-09T01:11:28.098Z,6.60
2023-02-09T01:13:57.235Z,6.63
2023-02-09T01:16:24.258Z,6.60
2023-02-09T01:18:50.996Z,6.90
2023-02-09T01:21:20.561Z,7.07
2023-02-09T01:23:48.294Z,6.03
2023-02-09T01:26:16.220Z,6.77
2023-02-09T01:28:43.504Z,6.87
2023-02-09T01:31:28.765Z,6.73
2023-02-09T01:33:57.013Z,6.40
2023-02-09T01:36:23.863Z,6.70
2023-02-09T01:38:51.343Z,7.07
2023-02-09T01:41:18.639Z,6.97
2023-02-09T01:43:59.490Z,6.70
2023-02-09T01:46:32.081Z,6.77
2023-02-09T01:49:14.967Z,6.37
2023-02-09T01:51:50.905Z,7.53
2023-02-09T01:54:25.475Z,6.83
2023-02-09T01:56:56.604Z,6.70
2023-02-09T01:59:23.988Z,7.13
2023-02-09T02:01:52.810Z,6.77
2023-02-09T02:04:21.288Z,7.47
2023-02-09T02:06:48.632Z,7.10
2023-02-09T02:09:17.813Z,6.87
2023-02-09T02:11:47.719Z,7.20
2023-02-09T02:14:37.794Z,7.57
2023-02-09T02:17:07.492Z,6.87
2023-02-09T02:19:58.433Z,7.20
2023-02-09T02:22:48.334Z,6.80
2023-02-09T02:25:59.637Z,7.23
2023-02-09T02:28:42.799Z,7.20
2023-02-09T02:31:24.317Z,7.10
2023-02-09T02:34:14.624Z,7.63
2023-02-09T02:37:11.608Z,7.03
2023-02-09T02:39:46.744Z,6.90
2023-02-09T02:42:38.021Z,7.57
2023-02-09T02:45:32.719Z,7.50
2023-02-09T02:48:08.461Z,7.20
2023-02-09T02:50:39.907Z,7.90
2023-02-09T02:53:08.946Z,8.47
2023-02-09T02:55:38.187Z,7.57
2023-02-09T02:58:09.372Z,8.17
2023-02-09T03:00:43.189Z,8.00
2023-02-09T03:03:18.295Z,7.50
2023-02-09T03:05:45.949Z,7.73
2023-02-09T03:08:12.605Z,8.20
2023-02-09T03:10:41.574Z,7.73
2023-02-09T03:13:26.052Z,7.77
2023-02-09T03:20:02.970Z,7.63
2023-02-09T03:22:36.990Z,8.30
2023-02-09T03:25:19.582Z,7.73
2023-02-09T03:27:58.582Z,8.47
2023-02-09T03:30:26.307Z,8.03
2023-02-09T03:32:56.303Z,8.60
2023-02-09T03:35:27.142Z,8.57
2023-02-09T03:37:53.896Z,7.67
2023-02-09T03:40:20.728Z,7.97
2023-02-09T03:42:47.749Z,8.80
2023-02-09T03:45:14.547Z,8.53
2023-02-09T03:47:41.217Z,8.40
2023-02-09T03:50:08.122Z,9.03
2023-02-09T03:52:35.205Z,9.23
2023-02-09T03:55:03.174Z,8.90
2023-02-09T03:57:29.870Z,8.00
2023-02-09T03:59:56.538Z,8.67
2023-02-09T04:02:23.302Z,9.40
2023-02-09T04:04:49.965Z,8.47
2023-02-09T04:07:17.023Z,9.40
2023-02-09T04:09:43.696Z,9.27
2023-02-09T04:12:10.418Z,8.43
2023-02-09T04:14:37.070Z,8.50
2023-02-09T04:17:03.794Z,8.23
2023-02-09T04:19:30.552Z,8.40
2023-02-09T04:21:57.258Z,8.83
2023-02-09T04:24:24.047Z,8.80
2023-02-09T04:26:50.675Z,9.50
2023-02-09T04:29:17.340Z,9.10
2023-02-09T04:31:44.022Z,8.90
2023-02-09T04:34:10.764Z,9.50
2023-02-09T04:36:37.418Z,8.90
2023-02-09T04:39:04.523Z,9.30
2023-02-09T04:41:31.173Z,8.47
2023-02-09T04:43:58.224Z,8.77
2023-02-09T04:46:24.979Z,8.93
2023-02-09T04:48:51.648Z,9.30
2023-02-09T04:51:18.446Z,8.90
2023-02-09T04:53:45.168Z,9.10
2023-02-09T04:56:15.806Z,9.60
2023-02-09T04:59:01.977Z,9.60
2023-02-09T05:01:29.192Z,9.33
2023-02-09T05:03:56.095Z,9.33
2023-02-09T05:06:22.954Z,9.30
2023-02-09T05:08:49.688Z,9.37
2023-02-09T05:11:16.470Z,9.20
2023-02-09T05:13:43.309Z,9.43
2023-02-09T05:16:14.154Z,9.87
2023-02-09T05:18:40.859Z,9.93
2023-02-09T05:21:07.527Z,9.70
2023-02-09T05:23:34.283Z,9.20
2023-02-09T05:26:00.990Z,9.97
2023-02-09T05:28:27.773Z,8.77
2023-02-09T05:30:54.689Z,10.30
2023-02-09T05:33:22.775Z,10.13
2023-02-09T05:35:51.028Z,9.40
2023-02-09T05:38:18.428Z,9.77
2023-02-09T05:40:45.433Z,9.67
2023-02-09T05:43:12.401Z,9.77
2023-02-09T05:45:39.247Z,9.97
2023-02-09T05:48:06.233Z,10.27
2023-02-09T05:50:33.345Z,9.97
2023-02-09T05:53:00.126Z,9.90
2023-02-09T05:55:27.214Z,9.57
2023-02-09T05:57:53.947Z,10.50
2023-02-09T06:00:21.544Z,10.13
2023-02-09T06:02:48.268Z,9.97
2023-02-09T06:05:15.008Z,10.20
2023-02-09T06:07:41.698Z,10.70
2023-02-09T06:10:08.870Z,10.10
2023-02-09T06:12:35.540Z,9.70
2023-02-09T06:15:02.238Z,9.40
2023-02-09T06:17:29.003Z,9.60
2023-02-09T06:19:55.735Z,10.40
2023-02-09T06:22:22.378Z,9.50
2023-02-09T06:24:49.059Z,10.03
2023-02-09T06:27:15.797Z,10.73
2023-02-09T06:29:42.526Z,9.63
2023-02-09T06:32:09.302Z,9.93
2023-02-09T06:34:36.422Z,10.00
2023-02-09T06:37:03.209Z,11.17
2023-02-09T06:39:29.996Z,10.30
2023-02-09T06:41:57.061Z,9.80
2023-02-09T06:44:23.713Z,10.23
2023-02-09T06:46:50.455Z,10.07
2023-02-09T06:49:18.773Z,11.13
2023-02-09T06:51:45.524Z,10.83
2023-02-09T06:54:12.750Z,10.63
2023-02-09T06:56:39.460Z,10.37
2023-02-09T06:59:06.122Z,10.97
2023-02-09T07:01:32.818Z,10.87
2023-02-09T07:03:59.595Z,10.47
2023-02-09T07:06:27.073Z,11.10
2023-02-09T07:08:54.198Z,11.07
2023-02-09T07:11:21.409Z,11.27
2023-02-09T07:13:48.632Z,11.20
2023-02-09T07:16:15.648Z,11.03
2023-02-09T07:18:42.610Z,10.90
2023-02-09T07:21:12.187Z,11.50
2023-02-09T07:23:39.207Z,11.67
2023-02-09T07:26:10.069Z,15.40
2023-02-09T07:28:37.141Z,17.33
2023-02-09T07:31:06.562Z,16.00
2023-02-09T07:33:34.556Z,14.10
2023-02-09T07:36:04.824Z,12.70
2023-02-09T07:38:31.691Z,11.70
2023-02-09T07:41:03.732Z,10.80
2023-02-09T07:43:30.980Z,11.23
2023-02-09T07:46:06.326Z,11.53
2023-02-09T07:48:33.877Z,18.13
2023-02-09T07:51:01.261Z,17.30
2023-02-09T07:53:28.925Z,16.00
2023-02-09T07:55:55.836Z,13.97
2023-02-09T07:58:22.592Z,11.77
2023-02-09T08:00:53.255Z,12.07
2023-02-09T08:03:22.523Z,11.60
2023-02-09T08:06:40.724Z,10.77
2023-02-09T08:09:09.853Z,11.73
2023-02-09T08:11:46.014Z,12.30
2023-02-09T08:14:23.873Z,12.47
2023-02-09T08:17:13.803Z,11.80
2023-02-09T08:19:41.745Z,13.47
2023-02-09T08:22:08.460Z,13.00
2023-02-09T08:24:35.149Z,13.07
2023-02-09T08:27:01.869Z,12.80
2023-02-09T08:29:28.573Z,12.27
2023-02-09T08:31:55.416Z,12.10
2023-02-09T08:34:22.111Z,12.40
2023-02-09T08:36:48.797Z,11.97
2023-02-09T08:39:15.472Z,12.10
2023-02-09T08:41:42.334Z,11.80
2023-02-09T08:44:09.600Z,12.57
2023-02-09T08:46:36.628Z,12.37
2023-02-09T08:49:04.452Z,12.37
2023-02-09T08:51:31.137Z,12.13
2023-02-09T08:53:57.814Z,13.37
2023-02-09T08:56:24.464Z,11.97
2023-02-09T08:58:51.174Z,12.30
2023-02-09T09:01:17.983Z,12.47
2023-02-09T09:03:44.793Z,12.47
2023-02-09T09:06:12.204Z,13.07
2023-02-09T09:08:39.763Z,13.07
2023-02-09T09:11:07.398Z,13.00
2023-02-09T09:13:34.073Z,13.23
2023-02-09T09:16:00.787Z,13.93
2023-02-09T09:18:27.520Z,12.30
2023-02-09T09:20:56.135Z,12.03
2023-02-09T09:23:22.901Z,13.30
2023-02-09T09:25:49.589Z,13.13
2023-02-09T09:28:16.553Z,12.97
2023-02-09T09:30:43.309Z,12.77
2023-02-09T09:33:13.169Z,12.70
2023-02-09T09:35:39.959Z,13.07
2023-02-09T09:38:06.649Z,12.93
2023-02-09T09:40:35.750Z,12.00
2023-02-09T09:43:08.820Z,12.63
2023-02-09T09:45:38.608Z,12.77
2023-02-09T09:48:08.988Z,12.00
2023-02-09T09:50:42.794Z,12.13
2023-02-09T09:53:16.498Z,12.57
2023-02-09T09:55:45.590Z,13.03
2023-02-09T09:58:18.144Z,12.27
2023-02-09T10:00:45.637Z,12.57
2023-02-09T10:03:18.283Z,12.33
2023-02-09T10:05:48.311Z,11.90
2023-02-09T10:08:39.528Z,12.23
2023-02-09T10:11:08.770Z,12.50
2023-02-09T10:13:47.858Z,11.67
2023-02-09T10:16:24.730Z,11.80
2023-02-09T10:19:00.486Z,12.77
2023-02-09T10:21:34.051Z,12.90
2023-02-09T10:24:00.682Z,13.03
2023-02-09T10:26:35.200Z,12.67
2023-02-09T10:29:24.609Z,12.47
2023-02-09T10:32:14.732Z,12.23
2023-02-09T10:34:48.801Z,12.73
2023-02-09T10:37:24.079Z,13.10
2023-02-09T10:40:25.508Z,12.33
2023-02-09T10:42:57.367Z,12.17
2023-02-09T10:45:38.736Z,13.20
2023-02-09T10:48:11.315Z,12.27
2023-02-09T10:50:49.945Z,12.37
2023-02-09T10:53:28.828Z,12.33
2023-02-09T10:56:03.834Z,11.67
2023-02-09T10:58:33.579Z,12.70
2023-02-09T11:01:09.165Z,12.23
2023-02-09T11:03:37.948Z,11.60
2023-02-09T11:06:15.948Z,12.30
2023-02-09T11:09:08.660Z,12.10
2023-02-09T11:11:41.094Z,11.90
2023-02-09T11:14:18.927Z,12.23
2023-02-09T11:17:05.127Z,11.67
2023-02-09T11:20:08.084Z,11.80
2023-02-09T11:22:59.441Z,11.83
2023-02-09T11:25:37.897Z,12.00
2023-02-09T11:28:33.575Z,11.00
2023-02-09T11:31:44.257Z,11.10
2023-02-09T11:34:34.527Z,11.10
2023-02-09T11:37:30.539Z,11.93
2023-02-09T11:40:26.149Z,11.13
2023-02-09T11:42:59.273Z,11.13
2023-02-09T11:45:39.164Z,12.30
2023-02-09T11:48:05.794Z,11.03
2023-02-09T11:51:07.750Z,11.50
2023-02-09T11:53:55.755Z,10.80
2023-02-09T11:56:24.738Z,11.50
2023-02-09T11:59:08.611Z,11.43
2023-02-09T12:01:51.857Z,9.90
2023-02-09T12:04:37.257Z,10.27
2023-02-09T12:07:31.253Z,10.47
2023-02-09T12:10:23.934Z,10.40
2023-02-09T12:13:08.834Z,10.80
2023-02-09T12:15:45.013Z,10.40
2023-02-09T12:18:21.067Z,10.53
2023-02-09T12:20:57.673Z,10.73
2023-02-09T12:23:30.588Z,10.40
2023-02-09T12:26:00.979Z,10.93
2023-02-09T12:28:27.720Z,11.27
2023-02-09T12:30:58.732Z,12.23
2023-02-09T12:33:25.436Z,11.27
2023-02-09T12:36:10.205Z,11.53
2023-02-09T12:38:49.367Z,10.50
2023-02-09T12:41:19.422Z,10.17
2023-02-09T12:43:46.319Z,10.80
2023-02-09T12:46:21.020Z,10.33
2023-02-09T12:49:09.470Z,9.73
2023-02-09T12:51:54.309Z,10.07
2023-02-09T12:54:49.168Z,9.60
2023-02-09T12:57:16.023Z,9.00
2023-02-09T12:59:59.709Z,9.70
2023-02-09T13:02:49.767Z,10.77
2023-02-09T13:05:19.167Z,9.90
2023-02-09T13:08:15.899Z,10.27
2023-02-09T13:11:17.774Z,10.67
2023-02-09T13:14:07.683Z,9.70
2023-02-09T13:16:58.970Z,9.43
2023-02-09T13:19:58.117Z,9.47
2023-02-09T13:22:28.213Z,9.60
2023-02-09T13:25:01.214Z,9.63
2023-02-09T13:27:29.309Z,9.40
2023-02-09T13:29:58.949Z,9.70
2023-02-09T13:32:39.452Z,9.80
2023-02-09T13:35:29.432Z,9.07
2023-02-09T13:37:58.588Z,8.93
2023-02-09T13:40:31.265Z,9.60
2023-02-09T13:43:03.670Z,8.97
2023-02-09T13:45:30.735Z,8.83
2023-02-09T13:48:00.500Z,9.10
2023-02-09T13:50:28.350Z,9.23
2023-02-09T13:53:06.968Z,9.00
2023-02-09T13:55:37.794Z,9.33
2023-02-09T13:58:07.559Z,8.80
2023-02-09T14:00:43.660Z,8.83
2023-02-09T14:03:58.575Z,9.47
2023-02-09T14:06:43.602Z,8.80
2023-02-09T14:09:17.041Z,9.20
2023-02-09T14:11:54.560Z,9.23
2023-02-09T14:14:26.717Z,9.53
2023-02-09T14:17:25.338Z,9.13
2023-02-09T14:19:54.282Z,9.07
2023-02-09T14:22:37.477Z,8.60
2023-02-09T14:25:13.179Z,8.90
2023-02-09T14:27:46.310Z,8.70
2023-02-09T14:30:18.299Z,9.70
2023-02-09T14:32:48.372Z,8.90
2023-02-09T14:35:20.140Z,9.07
2023-02-09T14:37:48.196Z,8.70
2023-02-09T14:40:26.599Z,9.10
2023-02-09T14:43:11.316Z,9.87
2023-02-09T14:45:41.323Z,8.60
2023-02-09T14:48:17.542Z,8.87
2023-02-09T14:50:44.280Z,8.03
2023-02-09T14:53:14.155Z,8.87
2023-02-09T14:55:40.917Z,9.20
2023-02-09T14:58:20.805Z,9.17
2023-02-09T15:00:48.423Z,8.83
2023-02-09T15:03:15.141Z,8.87
2023-02-09T15:05:42.131Z,8.93
2023-02-09T15:08:14.931Z,8.17
2023-02-09T15:11:28.300Z,8.87
2023-02-09T15:14:06.456Z,9.00
2023-02-09T15:16:33.109Z,8.90
2023-02-09T15:18:59.950Z,8.87
2023-02-09T15:21:26.654Z,9.13
2023-02-09T15:23:53.313Z,9.77
2023-02-09T15:26:26.653Z,9.30
2023-02-09T15:28:53.575Z,8.97
2023-02-09T15:31:20.409Z,9.30
2023-02-09T15:33:47.103Z,9.07
2023-02-09T15:36:19.552Z,9.20
2023-02-09T15:38:46.734Z,9.17
2023-02-09T15:41:31.831Z,9.40
2023-02-09T15:44:23.018Z,9.73
2023-02-09T15:47:08.383Z,8.73
2023-02-09T15:49:35.029Z,9.27
2023-02-09T15:52:01.959Z,9.03
2023-02-09T15:54:32.672Z,8.97
2023-02-09T15:57:01.008Z,9.23
2023-02-09T15:59:27.691Z,9.37
2023-02-09T16:01:54.655Z,8.80
2023-02-09T16:04:21.333Z,8.77
2023-02-09T16:06:53.887Z,9.10
2023-02-09T16:09:27.560Z,9.07
2023-02-09T16:11:55.062Z,9.50
2023-02-09T16:14:25.005Z,9.07
2023-02-09T16:16:52.116Z,9.37
2023-02-09T16:19:20.550Z,9.37
2023-02-09T16:21:51.340Z,8.90
2023-02-09T16:24:42.108Z,9.23
2023-02-09T16:27:24.890Z,9.33
2023-02-09T16:29:51.572Z,9.60
2023-02-09T16:32:22.129Z,9.63
2023-02-09T16:34:49.961Z,9.70
2023-02-09T16:37:29.055Z,9.30
2023-02-09T16:39:57.962Z,9.27
2023-02-09T16:42:25.480Z,9.73
2023-02-09T16:44:52.885Z,9.23
2023-02-09T16:47:26.083Z,9.63
2023-02-09T16:50:02.590Z,9.87
2023-02-09T16:52:30.337Z,9.50
2023-02-09T16:54:59.812Z,9.80
2023-02-09T16:57:28.335Z,10.77
2023-02-09T16:59:55.406Z,9.33
2023-02-09T17:02:39.822Z,10.47
2023-02-09T17:05:19.680Z,10.13
2023-02-09T17:07:54.902Z,10.57
2023-02-09T17:10:25.800Z,9.93
2023-02-09T17:12:53.725Z,10.37
2023-02-09T17:15:30.065Z,10.47
2023-02-09T17:18:02.292Z,10.27
2023-02-09T17:20:35.773Z,10.40
2023-02-09T17:23:02.481Z,10.00
2023-02-09T17:25:29.401Z,10.30
2023-02-09T17:27:56.122Z,9.80
2023-02-09T17:30:22.859Z,9.57
2023-02-09T17:32:59.098Z,10.00
2023-02-09T17:35:48.779Z,9.70
2023-02-09T17:38:22.674Z,9.37
2023-02-09T17:40:50.696Z,10.33
2023-02-09T17:43:17.636Z,9.60
2023-02-09T17:45:49.288Z,10.73
2023-02-09T17:48:17.462Z,11.27
2023-02-09T17:50:45.937Z,9.50
2023-02-09T17:53:17.281Z,10.00
2023-02-09T17:55:45.173Z,9.77
2023-02-09T17:58:13.110Z,10.30
2023-02-09T18:00:41.233Z,9.90
2023-02-09T18:03:11.250Z,10.73
2023-02-09T18:05:40.383Z,10.87
2023-02-09T18:08:07.814Z,14.87
2023-02-09T18:10:34.600Z,12.67
2023-02-09T18:13:01.723Z,12.30
2023-02-09T18:15:40.471Z,12.23
2023-02-09T18:18:07.279Z,10.83
2023-02-09T18:20:34.325Z,12.63
2023-02-09T18:23:04.399Z,12.93
2023-02-09T18:25:34.747Z,13.10
2023-02-09T18:28:02.830Z,13.77
2023-02-09T18:30:32.029Z,13.27
2023-02-09T18:32:59.540Z,14.13
2023-02-09T18:35:40.391Z,13.93
2023-02-09T18:38:09.345Z,13.77
2023-02-09T18:40:37.321Z,14.10
2023-02-09T18:43:06.016Z,13.63
2023-02-09T18:45:33.139Z,14.10
2023-02-09T18:48:00.054Z,13.47
2023-02-09T18:50:29.584Z,14.03
2023-02-09T18:52:58.653Z,14.40
2023-02-09T18:55:29.269Z,14.17
2023-02-09T18:58:00.354Z,14.43
2023-02-09T19:00:27.686Z,14.60
2023-02-09T19:02:58.479Z,13.77
2023-02-09T19:05:32.214Z,14.10
2023-02-09T19:07:59.568Z,14.27
2023-02-09T19:10:27.116Z,15.20
2023-02-09T19:12:54.393Z,12.97
2023-02-09T19:15:22.486Z,13.67
2023-02-09T19:17:50.287Z,13.73
2023-02-09T19:20:23.273Z,13.50
2023-02-09T19:22:51.653Z,14.13
2023-02-09T19:25:24.573Z,12.63
2023-02-09T19:27:52.160Z,13.43
2023-02-09T19:30:24.753Z,13.33
2023-02-09T19:32:53.292Z,13.20
2023-02-09T19:35:22.485Z,13.67
2023-02-09T19:37:53.707Z,12.97
2023-02-09T19:40:28.045Z,12.97
2023-02-09T19:42:56.280Z,13.40
2023-02-09T19:45:23.479Z,14.20
2023-02-09T19:47:50.396Z,13.23
2023-02-09T19:50:18.069Z,12.73
2023-02-09T19:52:47.426Z,13.20
2023-02-09T19:55:14.832Z,13.07
2023-02-09T19:57:42.779Z,13.77
2023-02-09T20:00:14.631Z,14.17
2023-02-09T20:02:41.535Z,13.77
2023-02-09T20:05:08.739Z,13.50
2023-02-09T20:07:35.742Z,13.43
2023-02-09T20:10:02.446Z,12.87
2023-02-09T20:12:29.162Z,12.70
2023-02-09T20:14:55.848Z,13.57
2023-02-09T20:17:22.568Z,13.50
2023-02-09T20:19:49.361Z,12.47
2023-02-09T20:22:16.449Z,12.63
2023-02-09T20:24:44.220Z,12.97
2023-02-09T20:27:11.719Z,12.10
2023-02-09T20:29:39.049Z,13.63
2023-02-09T20:32:06.334Z,12.67
2023-02-09T20:34:33.050Z,12.13
2023-02-09T20:36:59.799Z,12.83
2023-02-09T20:39:26.457Z,11.80
2023-02-09T20:42:16.423Z,12.27
2023-02-09T20:45:02.447Z,12.70
2023-02-09T20:47:32.061Z,12.70
2023-02-09T20:50:00.425Z,12.10
2023-02-09T20:52:28.719Z,13.70
2023-02-09T20:54:55.803Z,12.10
2023-02-09T20:57:29.122Z,12.73
2023-02-09T20:59:57.625Z,13.80
2023-02-09T21:02:25.045Z,13.33
2023-02-09T21:04:54.240Z,14.40
2023-02-09T21:07:20.921Z,14.60
2023-02-09T21:09:47.689Z,14.37
2023-02-09T21:12:14.476Z,14.20
2023-02-09T21:14:44.939Z,14.47
2023-02-09T21:17:12.303Z,15.17
2023-02-09T21:19:39.672Z,15.20
2023-02-09T21:22:06.836Z,14.70
2023-02-09T21:24:33.907Z,15.17
2023-02-09T21:27:00.794Z,15.30
2023-02-09T21:29:29.168Z,15.03
2023-02-09T21:31:56.391Z,15.60
2023-02-09T21:34:23.136Z,14.30
2023-02-09T21:36:49.851Z,15.53
2023-02-09T21:39:16.572Z,14.27
2023-02-09T21:42:01.843Z,13.97
2023-02-09T21:44:29.191Z,14.60
2023-02-09T21:46:55.972Z,15.13
2023-02-09T21:49:22.989Z,14.90
2023-02-09T21:51:49.673Z,14.03
2023-02-09T21:54:17.635Z,14.70
2023-02-09T21:56:45.106Z,15.03
2023-02-09T21:59:12.095Z,15.07
2023-02-09T22:01:39.507Z,15.97
2023-02-09T22:04:06.393Z,15.77
2023-02-09T22:06:33.138Z,16.30
2023-02-09T22:09:03.544Z,15.50
2023-02-09T22:11:30.217Z,16.87
2023-02-09T22:13:56.966Z,16.20
2023-02-09T22:16:24.907Z,16.43
2023-02-09T22:18:51.858Z,16.70
2023-02-09T22:21:18.937Z,18.50
2023-02-09T22:23:45.936Z,17.57
2023-02-09T22:26:13.803Z,17.03
2023-02-09T22:28:41.539Z,18.93
2023-02-09T22:31:13.816Z,19.00
2023-02-09T22:33:40.839Z,18.23
2023-02-09T22:36:10.974Z,19.47
2023-02-09T22:38:37.748Z,18.40
2023-02-09T22:41:22.666Z,18.90
2023-02-09T22:43:59.116Z,21.97
2023-02-09T22:46:28.773Z,20.57
2023-02-09T22:48:58.320Z,20.07
2023-02-09T22:51:28.578Z,20.07
2023-02-09T22:53:56.749Z,19.70
2023-02-09T22:56:23.909Z,20.23
2023-02-09T22:58:56.506Z,19.90
2023-02-09T23:01:23.517Z,20.27
2023-02-09T23:03:50.565Z,21.50
2023-02-09T23:06:23.253Z,20.00
2023-02-09T23:08:56.248Z,21.00
2023-02-09T23:11:23.583Z,19.40
2023-02-09T23:13:57.666Z,20.23
2023-02-09T23:16:34.023Z,20.13
2023-02-09T23:19:07.469Z,21.00
2023-02-09T23:21:36.709Z,20.60
2023-02-09T23:24:04.324Z,22.23
2023-02-09T23:26:31.316Z,20.33
2023-02-09T23:29:01.042Z,20.83
2023-02-09T23:31:28.404Z,21.63
2023-02-09T23:33:55.453Z,21.83
2023-02-09T23:36:25.227Z,21.50
2023-02-09T23:38:56.823Z,23.23
2023-02-09T23:41:24.056Z,21.57
2023-02-09T23:43:51.619Z,20.67
2023-02-09T23:46:20.841Z,21.70
2023-02-09T23:48:48.126Z,22.43
2023-02-09T23:51:20.453Z,21.50
2023-02-09T23:53:48.030Z,21.83
2023-02-09T23:56:16.331Z,22.73
2023-02-09T23:58:44.872Z,21.27
